createdAt,value
2022-07-26T00:01:06.753Z,32.24
2022-07-26T00:03:39.090Z,32.27
2022-07-26T00:06:11.647Z,32.20
2022-07-26T00:08:44.128Z,32.33
2022-07-26T00:11:16.521Z,32.24
2022-07-26T00:13:49.477Z,32.51
2022-07-26T00:16:21.884Z,32.58
2022-07-26T00:18:54.245Z,32.80
2022-07-26T00:21:26.922Z,32.96
2022-07-26T00:23:59.311Z,32.84
2022-07-26T00:26:31.621Z,32.69
2022-07-26T00:29:05.173Z,32.90
2022-07-26T00:31:37.865Z,33.36
2022-07-26T00:34:10.344Z,33.35
2022-07-26T00:36:44.126Z,33.31
2022-07-26T00:39:16.482Z,33.33
2022-07-26T00:42:24.594Z,33.38
2022-07-26T00:44:56.908Z,33.24
2022-07-26T00:47:29.186Z,33.20
2022-07-26T00:50:01.652Z,33.07
2022-07-26T00:52:33.942Z,33.31
2022-07-26T00:55:07.789Z,33.51
2022-07-26T00:57:41.247Z,33.58
2022-07-26T01:00:16.222Z,33.47
2022-07-26T01:02:48.787Z,33.54
2022-07-26T01:05:21.202Z,33.50
2022-07-26T01:07:54.804Z,33.53
2022-07-26T01:10:29.265Z,33.42
2022-07-26T01:13:01.845Z,33.53
2022-07-26T01:15:34.185Z,33.72
2022-07-26T01:18:06.613Z,33.73
2022-07-26T01:20:39.335Z,33.80
2022-07-26T01:23:11.777Z,33.88
2022-07-26T01:25:46.006Z,33.95
2022-07-26T01:28:21.219Z,34.09
2022-07-26T01:30:53.535Z,34.12
2022-07-26T01:33:28.273Z,34.17
2022-07-26T01:36:00.759Z,34.26
2022-07-26T01:38:33.130Z,34.25
2022-07-26T01:41:05.407Z,34.28
2022-07-26T01:43:37.802Z,34.23
2022-07-26T01:46:11.251Z,34.38
2022-07-26T01:48:44.147Z,34.53
2022-07-26T01:51:22.678Z,34.53
2022-07-26T01:53:54.959Z,34.58
2022-07-26T01:56:27.229Z,34.64
2022-07-26T01:58:59.600Z,34.66
2022-07-26T02:01:39.058Z,34.73
2022-07-26T02:04:32.577Z,34.76
2022-07-26T02:07:03.315Z,34.97
2022-07-26T02:09:40.006Z,35.09
2022-07-26T02:12:13.070Z,35.08
2022-07-26T02:14:45.455Z,35.29
2022-07-26T02:17:18.026Z,35.21
2022-07-26T02:19:50.439Z,35.21
2022-07-26T02:22:23.007Z,35.42
2022-07-26T02:24:55.305Z,35.47
2022-07-26T02:27:27.645Z,35.35
2022-07-26T02:29:59.813Z,35.59
2022-07-26T02:32:30.368Z,35.79
2022-07-26T02:35:02.562Z,35.72
2022-07-26T02:37:42.409Z,35.62
2022-07-26T02:40:19.332Z,35.89
2022-07-26T02:42:52.114Z,35.97
2022-07-26T02:45:24.601Z,35.94
2022-07-26T02:47:57.742Z,36.10
2022-07-26T02:50:31.488Z,36.16
2022-07-26T02:53:03.964Z,36.11
2022-07-26T02:55:36.328Z,36.18
2022-07-26T02:58:08.568Z,36.31
2022-07-26T03:00:40.877Z,36.40
2022-07-26T03:03:14.358Z,36.38
2022-07-26T03:05:46.800Z,36.68
2022-07-26T03:08:17.285Z,36.45
2022-07-26T03:10:49.477Z,36.55
2022-07-26T03:13:21.798Z,36.75
2022-07-26T03:15:52.329Z,37.09
2022-07-26T03:18:24.744Z,37.11
2022-07-26T03:20:55.492Z,37.16
2022-07-26T03:23:28.288Z,37.08
2022-07-26T03:26:01.815Z,37.30
2022-07-26T03:28:35.059Z,37.18
2022-07-26T03:31:07.397Z,37.36
2022-07-26T03:33:37.917Z,37.29
2022-07-26T03:36:15.652Z,37.46
2022-07-26T03:38:48.829Z,37.49
2022-07-26T03:41:21.121Z,37.55
2022-07-26T03:44:00.314Z,37.48
2022-07-26T03:46:32.611Z,37.72
2022-07-26T03:49:05.021Z,37.62
2022-07-26T03:51:37.333Z,37.87
2022-07-26T03:54:08.123Z,37.67
2022-07-26T03:56:40.780Z,37.61
2022-07-26T03:59:14.177Z,38.03
2022-07-26T04:01:46.513Z,37.80
2022-07-26T04:04:19.619Z,38.04
2022-07-26T04:06:57.860Z,38.09
2022-07-26T04:09:35.828Z,37.98
2022-07-26T04:12:08.969Z,38.00
2022-07-26T04:14:42.835Z,38.29
2022-07-26T04:17:15.071Z,38.17
2022-07-26T04:19:45.602Z,38.35
2022-07-26T04:22:17.963Z,38.40
2022-07-26T04:24:48.539Z,38.40
2022-07-26T04:27:20.645Z,38.37
2022-07-26T04:29:51.296Z,38.23
2022-07-26T04:32:23.570Z,38.50
2022-07-26T04:34:54.058Z,38.56
2022-07-26T04:37:26.336Z,38.46
2022-07-26T04:39:58.652Z,38.40
2022-07-26T04:42:30.958Z,38.60
2022-07-26T04:45:08.047Z,38.43
2022-07-26T04:47:41.435Z,38.38
2022-07-26T04:50:14.730Z,38.66
2022-07-26T04:52:47.665Z,38.68
2022-07-26T04:55:18.521Z,38.53
2022-07-26T04:57:50.858Z,38.70
2022-07-26T05:00:25.192Z,38.45
2022-07-26T05:02:58.918Z,38.81
2022-07-26T05:05:33.148Z,38.49
2022-07-26T05:08:06.016Z,38.73
2022-07-26T05:10:40.024Z,38.83
2022-07-26T05:13:12.242Z,38.51
2022-07-26T05:15:42.939Z,38.74
2022-07-26T05:18:17.296Z,38.77
2022-07-26T05:20:51.916Z,38.80
2022-07-26T05:23:24.124Z,38.59
2022-07-26T05:25:57.197Z,38.78
2022-07-26T05:28:29.535Z,38.59
2022-07-26T05:31:00.186Z,38.67
2022-07-26T05:33:32.457Z,38.77
2022-07-26T05:36:05.148Z,38.93
2022-07-26T05:38:37.878Z,38.86
2022-07-26T05:41:10.328Z,38.85
2022-07-26T05:43:42.688Z,38.92
2022-07-26T05:46:16.235Z,39.22
2022-07-26T05:48:48.588Z,39.16
2022-07-26T05:51:21.121Z,38.92
2022-07-26T05:53:53.892Z,38.91
2022-07-26T05:56:26.354Z,39.09
2022-07-26T05:58:58.858Z,38.97
2022-07-26T06:01:32.920Z,38.92
2022-07-26T06:04:09.610Z,38.97
2022-07-26T06:06:42.508Z,39.05
2022-07-26T06:09:14.946Z,38.94
2022-07-26T06:11:47.370Z,38.93
2022-07-26T06:14:32.150Z,38.90
2022-07-26T06:17:05.701Z,38.82
2022-07-26T06:19:38.203Z,38.84
2022-07-26T06:22:10.550Z,38.90
2022-07-26T06:24:42.805Z,38.79
2022-07-26T06:27:15.090Z,38.79
2022-07-26T06:29:48.676Z,38.68
2022-07-26T06:32:20.936Z,38.65
2022-07-26T06:34:53.298Z,38.47
2022-07-26T06:37:25.850Z,38.34
2022-07-26T06:39:58.323Z,38.46
2022-07-26T06:42:30.807Z,38.43
2022-07-26T06:45:07.689Z,38.24
2022-07-26T06:47:40.002Z,38.13
2022-07-26T06:50:13.228Z,38.29
2022-07-26T06:52:47.946Z,38.02
2022-07-26T06:55:20.434Z,38.03
2022-07-26T06:57:52.737Z,38.08
2022-07-26T07:00:24.974Z,37.63
2022-07-26T07:02:57.210Z,37.84
2022-07-26T07:05:31.021Z,37.73
2022-07-26T07:08:03.684Z,37.70
2022-07-26T07:10:35.942Z,37.48
2022-07-26T07:13:08.333Z,37.27
2022-07-26T07:15:40.711Z,37.07
2022-07-26T07:18:13.269Z,36.82
2022-07-26T07:20:45.573Z,36.72
2022-07-26T07:23:18.020Z,36.70
2022-07-26T07:25:50.281Z,36.81
2022-07-26T07:28:23.731Z,36.62
2022-07-26T07:30:56.095Z,36.22
2022-07-26T07:33:36.712Z,35.89
2022-07-26T07:36:20.790Z,35.84
2022-07-26T07:38:53.095Z,35.71
2022-07-26T07:41:25.262Z,35.44
2022-07-26T07:43:57.578Z,35.16
2022-07-26T07:46:29.848Z,34.84
2022-07-26T07:49:02.231Z,34.78
2022-07-26T07:51:34.616Z,34.54
2022-07-26T07:54:08.891Z,34.55
2022-07-26T07:56:41.130Z,34.29
2022-07-26T07:59:15.854Z,34.03
2022-07-26T08:01:48.144Z,33.65
2022-07-26T08:04:20.421Z,33.45
2022-07-26T08:06:52.704Z,33.24
2022-07-26T08:09:26.267Z,32.83
2022-07-26T08:12:01.314Z,32.87
2022-07-26T08:14:34.500Z,32.70
2022-07-26T08:17:07.702Z,32.50
2022-07-26T08:19:41.623Z,32.40
2022-07-26T08:22:14.792Z,32.47
2022-07-26T08:24:47.097Z,32.00
2022-07-26T08:27:19.302Z,31.66
2022-07-26T08:29:51.555Z,31.53
2022-07-26T08:32:23.844Z,31.48
2022-07-26T08:34:56.211Z,31.18
2022-07-26T08:37:48.382Z,30.73
2022-07-26T08:40:21.062Z,31.17
2022-07-26T08:42:54.690Z,30.73
2022-07-26T08:45:28.026Z,30.22
2022-07-26T08:48:17.287Z,30.43
2022-07-26T08:50:50.953Z,30.14
2022-07-26T08:53:23.529Z,30.07
2022-07-26T08:56:07.765Z,29.72
2022-07-26T08:58:43.699Z,29.81
2022-07-26T09:01:17.297Z,29.50
2022-07-26T09:03:49.651Z,29.24
2022-07-26T09:06:25.497Z,29.01
2022-07-26T09:09:13.191Z,29.14
2022-07-26T09:11:45.545Z,28.59
2022-07-26T09:14:17.796Z,28.58
2022-07-26T09:17:01.103Z,28.65
2022-07-26T09:19:34.737Z,27.95
2022-07-26T09:22:15.229Z,27.74
2022-07-26T09:24:49.172Z,27.93
2022-07-26T09:27:24.160Z,27.73
2022-07-26T09:30:09.070Z,27.51
2022-07-26T09:32:41.447Z,27.28
2022-07-26T09:35:45.932Z,27.17
2022-07-26T09:38:16.867Z,26.77
2022-07-26T09:40:51.838Z,26.75
2022-07-26T09:43:24.973Z,26.55
2022-07-26T09:46:11.078Z,26.24
2022-07-26T09:49:09.540Z,26.31
2022-07-26T09:51:42.095Z,25.92
2022-07-26T09:54:18.918Z,25.57
2022-07-26T09:56:53.248Z,25.57
2022-07-26T09:59:26.957Z,25.26
2022-07-26T10:02:00.537Z,25.00
2022-07-26T10:04:32.869Z,24.69
2022-07-26T10:07:06.019Z,24.55
2022-07-26T10:09:43.440Z,24.26
2022-07-26T10:12:18.764Z,24.19
2022-07-26T10:14:52.322Z,23.99
2022-07-26T10:17:43.836Z,23.82
2022-07-26T10:20:55.966Z,23.89
2022-07-26T10:23:40.058Z,23.94
2022-07-26T10:26:15.401Z,23.86
2022-07-26T10:28:47.753Z,23.51
2022-07-26T10:31:33.263Z,23.20
2022-07-26T10:34:06.615Z,22.93
2022-07-26T10:36:40.887Z,22.86
2022-07-26T10:39:18.203Z,22.83
2022-07-26T10:41:59.451Z,22.76
2022-07-26T10:44:33.022Z,22.55
2022-07-26T10:47:18.856Z,22.47
2022-07-26T10:49:59.520Z,22.17
2022-07-26T10:52:32.932Z,21.95
2022-07-26T10:55:12.632Z,22.08
2022-07-26T10:57:46.489Z,21.91
2022-07-26T11:00:27.673Z,21.88
2022-07-26T11:03:02.566Z,21.80
2022-07-26T11:05:35.997Z,21.82
2022-07-26T11:08:11.824Z,21.60
2022-07-26T11:10:46.359Z,21.75
2022-07-26T11:13:27.280Z,21.39
2022-07-26T11:16:05.867Z,21.23
2022-07-26T11:18:40.408Z,21.15
2022-07-26T11:21:17.557Z,21.25
2022-07-26T11:23:52.189Z,21.07
2022-07-26T11:26:24.760Z,20.81
2022-07-26T11:29:06.276Z,20.86
2022-07-26T11:31:58.683Z,20.73
2022-07-26T11:34:36.329Z,20.81
2022-07-26T11:37:08.992Z,20.87
2022-07-26T11:39:42.195Z,20.80
2022-07-26T11:42:19.805Z,20.62
2022-07-26T11:44:54.209Z,20.40
2022-07-26T11:47:28.733Z,20.53
2022-07-26T11:50:18.276Z,20.39
2022-07-26T11:52:55.858Z,19.61
2022-07-26T11:55:32.717Z,19.94
2022-07-26T11:58:09.294Z,19.82
2022-07-26T12:00:41.993Z,19.31
2022-07-26T12:03:19.940Z,19.64
2022-07-26T12:06:07.477Z,19.41
2022-07-26T12:08:45.466Z,19.31
2022-07-26T12:11:19.403Z,19.15
2022-07-26T12:14:03.716Z,19.34
2022-07-26T12:16:47.682Z,19.39
2022-07-26T12:19:32.591Z,19.27
2022-07-26T12:22:13.422Z,19.03
2022-07-26T12:24:57.158Z,19.09
2022-07-26T12:27:33.097Z,18.85
2022-07-26T12:30:19.385Z,18.95
2022-07-26T12:32:54.693Z,18.76
2022-07-26T12:35:35.482Z,18.51
2022-07-26T12:38:09.456Z,18.55
2022-07-26T12:40:44.543Z,18.51
2022-07-26T12:43:17.093Z,18.41
2022-07-26T12:45:49.436Z,18.39
2022-07-26T12:48:22.319Z,18.18
2022-07-26T12:50:54.624Z,18.31
2022-07-26T12:53:27.358Z,18.24
2022-07-26T12:56:01.241Z,18.16
2022-07-26T12:58:33.466Z,18.29
2022-07-26T13:01:10.580Z,18.33
2022-07-26T13:03:43.004Z,18.32
2022-07-26T13:06:15.372Z,18.20
2022-07-26T13:08:47.900Z,18.17
2022-07-26T13:11:20.840Z,18.37
2022-07-26T13:13:53.515Z,18.33
2022-07-26T13:16:27.257Z,18.16
2022-07-26T13:19:02.182Z,18.13
2022-07-26T13:21:35.486Z,18.05
2022-07-26T13:24:11.533Z,17.89
2022-07-26T13:26:46.337Z,18.14
2022-07-26T13:29:18.794Z,17.77
2022-07-26T13:31:51.825Z,17.80
2022-07-26T13:34:31.662Z,17.32
2022-07-26T13:37:08.334Z,17.43
2022-07-26T13:39:44.096Z,17.21
2022-07-26T13:42:17.509Z,17.24
2022-07-26T13:44:49.915Z,17.15
2022-07-26T13:47:22.223Z,16.87
2022-07-26T13:49:54.633Z,16.72
2022-07-26T13:52:26.951Z,16.81
2022-07-26T13:54:59.396Z,16.81
2022-07-26T13:57:48.052Z,16.75
2022-07-26T14:00:24.539Z,16.69
2022-07-26T14:02:57.440Z,16.66
2022-07-26T14:05:30.447Z,16.15
2022-07-26T14:08:04.031Z,16.08
2022-07-26T14:10:39.960Z,16.34
2022-07-26T14:13:12.275Z,16.29
2022-07-26T14:15:44.642Z,16.50
2022-07-26T14:18:17.956Z,16.58
2022-07-26T14:20:51.738Z,16.66
2022-07-26T14:23:24.072Z,16.79
2022-07-26T14:25:56.453Z,16.85
2022-07-26T14:28:32.426Z,16.76
2022-07-26T14:31:04.924Z,16.71
2022-07-26T14:33:37.461Z,16.80
2022-07-26T14:36:13.354Z,16.88
2022-07-26T14:38:46.315Z,16.84
2022-07-26T14:41:20.113Z,16.69
2022-07-26T14:43:55.600Z,16.78
2022-07-26T14:46:28.883Z,16.76
2022-07-26T14:49:03.745Z,16.57
2022-07-26T14:51:36.295Z,16.65
2022-07-26T14:54:09.735Z,16.49
2022-07-26T14:56:42.387Z,16.47
2022-07-26T14:59:14.855Z,16.44
2022-07-26T15:01:53.836Z,16.36
2022-07-26T15:04:30.897Z,16.34
2022-07-26T15:07:14.374Z,16.34
2022-07-26T15:09:46.885Z,16.28
2022-07-26T15:12:20.614Z,16.51
2022-07-26T15:14:53.133Z,16.52
2022-07-26T15:17:26.237Z,16.48
2022-07-26T15:19:58.631Z,16.81
2022-07-26T15:22:30.987Z,16.73
2022-07-26T15:25:07.391Z,16.78
2022-07-26T15:27:39.862Z,16.70
2022-07-26T15:30:14.731Z,16.83
2022-07-26T15:32:47.631Z,16.73
2022-07-26T15:35:20.037Z,16.88
2022-07-26T15:37:52.274Z,16.82
2022-07-26T15:40:24.530Z,16.87
2022-07-26T15:42:56.882Z,16.87
2022-07-26T15:45:32.731Z,16.97
2022-07-26T15:48:16.057Z,17.05
2022-07-26T15:50:52.253Z,17.00
2022-07-26T15:53:25.939Z,17.18
2022-07-26T15:55:59.331Z,17.39
2022-07-26T15:58:33.031Z,17.28
2022-07-26T16:01:05.892Z,17.19
2022-07-26T16:03:38.857Z,17.32
2022-07-26T16:06:11.156Z,17.55
2022-07-26T16:09:13.421Z,17.38
2022-07-26T16:11:36.318Z,17.33
2022-07-26T16:14:08.866Z,17.51
2022-07-26T16:16:41.202Z,17.59
2022-07-26T16:19:16.091Z,17.64
2022-07-26T16:21:49.536Z,17.50
2022-07-26T16:24:21.866Z,17.55
2022-07-26T16:26:54.284Z,17.60
2022-07-26T16:29:26.640Z,17.65
2022-07-26T16:31:58.943Z,17.68
2022-07-26T16:34:34.921Z,17.87
2022-07-26T16:37:07.637Z,18.00
2022-07-26T16:39:39.946Z,17.96
2022-07-26T16:42:12.295Z,17.81
2022-07-26T16:44:44.770Z,17.84
2022-07-26T16:47:17.024Z,17.82
2022-07-26T16:49:49.685Z,17.93
2022-07-26T16:52:22.977Z,17.93
2022-07-26T16:54:55.238Z,18.13
2022-07-26T16:57:27.664Z,18.17
2022-07-26T16:59:59.958Z,18.24
2022-07-26T17:02:32.296Z,18.32
2022-07-26T17:05:05.217Z,18.41
2022-07-26T17:07:37.809Z,18.45
2022-07-26T17:10:12.578Z,18.35
2022-07-26T17:12:45.757Z,18.30
2022-07-26T17:15:19.976Z,18.45
2022-07-26T17:17:52.299Z,18.42
2022-07-26T17:20:24.907Z,18.25
2022-07-26T17:22:57.298Z,18.47
2022-07-26T17:25:29.780Z,18.53
2022-07-26T17:28:04.111Z,18.70
2022-07-26T17:30:36.866Z,18.63
2022-07-26T17:33:10.661Z,18.74
2022-07-26T17:35:43.958Z,18.74
2022-07-26T17:38:16.281Z,18.80
2022-07-26T17:40:49.562Z,19.06
2022-07-26T17:43:21.901Z,19.08
2022-07-26T17:45:54.264Z,19.03
2022-07-26T17:48:26.567Z,19.20
2022-07-26T17:50:58.909Z,19.27
2022-07-26T17:53:34.040Z,19.35
2022-07-26T17:56:07.882Z,19.50
2022-07-26T17:58:41.545Z,19.58
2022-07-26T18:01:14.028Z,19.76
2022-07-26T18:03:46.461Z,19.86
2022-07-26T18:06:19.075Z,19.90
2022-07-26T18:08:51.317Z,19.96
2022-07-26T18:11:23.639Z,20.15
2022-07-26T18:13:55.912Z,20.09
2022-07-26T18:16:28.432Z,20.34
2022-07-26T18:19:00.850Z,20.34
2022-07-26T18:21:33.158Z,20.64
2022-07-26T18:24:16.851Z,20.67
2022-07-26T18:26:49.905Z,20.78
2022-07-26T18:29:23.484Z,20.68
2022-07-26T18:32:00.579Z,20.96
2022-07-26T18:34:33.303Z,21.17
2022-07-26T18:37:06.365Z,21.32
2022-07-26T18:39:38.666Z,21.27
2022-07-26T18:42:11.199Z,21.28
2022-07-26T18:44:43.517Z,21.49
2022-07-26T18:47:15.828Z,21.58
2022-07-26T18:49:48.131Z,21.76
2022-07-26T18:52:31.912Z,21.97
2022-07-26T18:55:08.067Z,22.10
2022-07-26T18:57:41.247Z,21.95
2022-07-26T19:00:17.317Z,22.07
2022-07-26T19:02:52.217Z,22.18
2022-07-26T19:05:26.415Z,22.25
2022-07-26T19:08:07.706Z,22.44
2022-07-26T19:10:39.889Z,22.64
2022-07-26T19:13:12.115Z,22.73
2022-07-26T19:15:44.400Z,22.86
2022-07-26T19:18:17.097Z,22.97
2022-07-26T19:20:49.318Z,23.10
2022-07-26T19:23:21.563Z,23.26
2022-07-26T19:25:53.789Z,23.47
2022-07-26T19:28:26.105Z,23.31
2022-07-26T19:30:58.476Z,23.67
2022-07-26T19:33:30.877Z,23.97
2022-07-26T19:36:03.078Z,23.93
2022-07-26T19:38:35.353Z,24.08
2022-07-26T19:41:10.540Z,24.04
2022-07-26T19:43:46.387Z,24.10
2022-07-26T19:46:18.749Z,24.32
2022-07-26T19:48:51.316Z,24.50
2022-07-26T19:51:23.686Z,24.58
2022-07-26T19:53:55.942Z,24.73
2022-07-26T19:56:28.357Z,24.83
2022-07-26T19:59:01.888Z,24.93
2022-07-26T20:01:34.194Z,25.04
2022-07-26T20:04:07.488Z,25.15
2022-07-26T20:06:39.777Z,25.30
2022-07-26T20:09:12.282Z,25.40
2022-07-26T20:11:50.852Z,25.55
2022-07-26T20:14:23.563Z,25.60
2022-07-26T20:16:58.268Z,25.70
2022-07-26T20:19:30.630Z,25.84
2022-07-26T20:22:04.109Z,25.95
2022-07-26T20:24:38.336Z,25.92
2022-07-26T20:27:10.645Z,26.05
2022-07-26T20:29:42.935Z,26.17
2022-07-26T20:32:15.303Z,26.30
2022-07-26T20:34:47.571Z,26.38
2022-07-26T20:37:19.833Z,26.43
2022-07-26T20:39:52.174Z,26.38
2022-07-26T20:42:24.616Z,26.64
2022-07-26T20:44:57.163Z,26.81
2022-07-26T20:47:29.967Z,26.70
2022-07-26T20:50:03.635Z,26.85
2022-07-26T20:52:36.160Z,26.93
2022-07-26T20:55:10.059Z,26.94
2022-07-26T20:57:42.736Z,27.05
2022-07-26T21:00:17.385Z,27.15
2022-07-26T21:02:49.967Z,27.27
2022-07-26T21:05:22.694Z,27.32
2022-07-26T21:07:59.500Z,27.31
2022-07-26T21:10:32.268Z,27.44
2022-07-26T21:13:04.480Z,27.58
2022-07-26T21:15:36.758Z,27.64
2022-07-26T21:18:09.686Z,27.64
2022-07-26T21:20:44.706Z,27.89
2022-07-26T21:23:19.045Z,27.63
2022-07-26T21:25:58.238Z,27.97
2022-07-26T21:28:33.049Z,28.10
2022-07-26T21:31:05.442Z,28.06
2022-07-26T21:33:37.632Z,28.08
2022-07-26T21:36:10.050Z,28.47
2022-07-26T21:38:42.471Z,28.51
2022-07-26T21:41:14.835Z,28.27
2022-07-26T21:43:47.173Z,28.33
2022-07-26T21:46:19.539Z,28.31
2022-07-26T21:48:51.921Z,28.13
2022-07-26T21:51:24.185Z,28.24
2022-07-26T21:53:57.345Z,28.10
2022-07-26T21:56:30.092Z,27.87
2022-07-26T21:59:02.372Z,28.04
2022-07-26T22:01:35.409Z,28.09
2022-07-26T22:04:07.964Z,28.00
2022-07-26T22:06:40.329Z,27.82
2022-07-26T22:09:12.852Z,27.76
2022-07-26T22:11:45.384Z,27.82
2022-07-26T22:14:17.643Z,27.74
2022-07-26T22:16:49.904Z,27.61
2022-07-26T22:19:22.143Z,27.55
2022-07-26T22:21:54.390Z,27.72
2022-07-26T22:24:26.671Z,27.54
2022-07-26T22:26:58.844Z,27.48
2022-07-26T22:29:38.912Z,27.43
2022-07-26T22:32:12.692Z,27.19
2022-07-26T22:34:44.978Z,27.43
2022-07-26T22:37:17.288Z,27.29
2022-07-26T22:39:49.600Z,27.20
2022-07-26T22:42:21.836Z,27.34
2022-07-26T22:44:54.082Z,27.46
2022-07-26T22:47:26.359Z,27.38
2022-07-26T22:49:58.559Z,27.43
2022-07-26T22:52:30.878Z,27.67
2022-07-26T22:55:03.232Z,27.60
2022-07-26T22:57:35.711Z,27.73
2022-07-26T23:00:10.564Z,28.04
2022-07-26T23:02:42.761Z,27.97
2022-07-26T23:05:15.256Z,28.03
2022-07-26T23:07:48.095Z,28.33
2022-07-26T23:10:20.634Z,28.32
2022-07-26T23:12:55.412Z,28.56
2022-07-26T23:15:27.676Z,28.44
2022-07-26T23:17:59.861Z,28.62
2022-07-26T23:20:32.384Z,28.38
2022-07-26T23:23:04.819Z,28.30
2022-07-26T23:25:37.112Z,28.07
2022-07-26T23:28:09.539Z,28.49
2022-07-26T23:30:57.039Z,29.36
2022-07-26T23:33:53.534Z,29.91
2022-07-26T23:36:19.841Z,30.32
2022-07-26T23:38:52.115Z,30.40
2022-07-26T23:41:24.808Z,30.64
2022-07-26T23:43:57.445Z,31.02
2022-07-26T23:46:29.784Z,31.13
2022-07-26T23:49:04.168Z,31.29
2022-07-26T23:51:36.503Z,31.45
2022-07-26T23:54:08.850Z,31.46
2022-07-26T23:56:41.046Z,31.79
2022-07-26T23:59:13.677Z,31.90
